Accueil
METAR-TAF:

METAR-TAF

Aéroports :

Aéroport Le Mans-Arnage

Le Mans, France

latitude: 47-56N, longitude: 000-12E, altitude: 59 m

Observation

Le bulletin a été fait il y a 21 minutes, à 19:00 UTC
Vent 5 kt de nord-est
Température 28°C
Humidité 45%
Pression 1019 hPa
Visibilité 10 km ou plus
pas de nuages en-dessous de 1500 mètres et pas de cumulonimbus.

METAR: LFRM 201900Z AUTO 04005KT CAVOK 28/15 Q1019 NOSIG

Heure: 21:21 (19:21 UTC)

Prévision

Le bulletin a été fait il y a 2 heures et 21 minutes, à 17:00 UTC
Prévision valable du 20 à 18 UTC au 21 à 18 UTC
Vent 4 kt de nord/nord-est
Visibilité 10 km ou plus
pas de nuages en-dessous de 1500 mètres et pas de cumulonimbus.
Temporairement
du 21 à 04 UTC au 21 à 08 UTC
Nuages fragmentés à une hauteur de 1000 ft

TAF: LFRM 201700Z 2018/2118 03004KT CAVOK TEMPO 2104/2108 BKN010

Observations et prévisions météorologiques de plus de 4000 aéroports (messages METAR et TAF).

Les stations disponibles sont représentées par des disques jaunes et rouges sur la carte.

Passer la souris dessus pour voir le nom de la station.

Cliquer dessus pour voir les observations et prévisions météorologiques.

Pour changer de carte: cliquez sur les boutons verts avec une croix noire pour zoomer, sur le bouton vert avec un tiret pour effectuer un zoom arrière, ou sur les flèches vertes pour les cartes adjacentes.


METAR-TAF: